createdAt,value
2023-04-05T00:00:12.311Z,6.20
2023-04-05T00:02:41.533Z,6.30
2023-04-05T00:05:12.019Z,6.07
2023-04-05T00:07:40.621Z,6.30
2023-04-05T00:10:09.297Z,5.80
2023-04-05T00:12:37.658Z,6.00
2023-04-05T00:15:07.905Z,6.27
2023-04-05T00:17:36.326Z,6.20
2023-04-05T00:20:07.846Z,5.60
2023-04-05T00:22:37.061Z,5.93
2023-04-05T00:25:05.591Z,6.40
2023-04-05T00:27:34.008Z,6.40
2023-04-05T00:30:02.368Z,6.07
2023-04-05T00:32:32.230Z,6.30
2023-04-05T00:35:00.633Z,6.23
2023-04-05T00:37:29.028Z,6.37
2023-04-05T00:39:58.351Z,6.30
2023-04-05T00:42:27.138Z,6.37
2023-04-05T00:44:55.754Z,6.50
2023-04-05T00:47:24.540Z,6.17
2023-04-05T00:49:54.322Z,6.83
2023-04-05T00:52:23.449Z,6.43
2023-04-05T00:54:53.066Z,6.27
2023-04-05T00:57:21.917Z,6.27
2023-04-05T00:59:50.241Z,6.43
2023-04-05T01:02:21.843Z,6.00
2023-04-05T01:04:53.618Z,6.90
2023-04-05T01:07:27.410Z,7.17
2023-04-05T01:09:58.002Z,7.40
2023-04-05T01:12:29.259Z,7.67
2023-04-05T01:14:57.679Z,7.30
2023-04-05T01:17:28.359Z,7.03
2023-04-05T01:20:00.434Z,6.80
2023-04-05T01:22:49.393Z,7.03
2023-04-05T01:25:24.642Z,7.10
2023-04-05T01:28:04.396Z,6.30
2023-04-05T01:30:36.236Z,6.43
2023-04-05T01:33:10.832Z,6.20
2023-04-05T01:35:41.638Z,6.97
2023-04-05T01:38:12.632Z,6.17
2023-04-05T01:40:42.759Z,6.50
2023-04-05T01:43:15.057Z,6.57
2023-04-05T01:45:45.382Z,6.27
2023-04-05T01:48:14.045Z,6.40
2023-04-05T01:50:42.731Z,6.67
2023-04-05T01:53:11.493Z,6.40
2023-04-05T01:55:39.908Z,7.13
2023-04-05T01:58:10.357Z,6.60
2023-04-05T02:00:39.491Z,6.93
2023-04-05T02:03:09.537Z,7.10
2023-04-05T02:05:37.916Z,6.93
2023-04-05T02:08:06.324Z,6.27
2023-04-05T02:10:34.661Z,6.90
2023-04-05T02:13:03.062Z,7.00
2023-04-05T02:15:34.116Z,6.83
2023-04-05T02:18:03.701Z,8.10
2023-04-05T02:20:34.624Z,7.10
2023-04-05T02:23:03.276Z,6.60
2023-04-05T02:25:31.720Z,6.77
2023-04-05T02:28:00.150Z,7.00
2023-04-05T02:30:29.061Z,7.13
2023-04-05T02:32:57.581Z,7.17
2023-04-05T02:35:26.059Z,7.10
2023-04-05T02:37:56.760Z,8.03
2023-04-05T02:40:25.340Z,7.93
2023-04-05T02:42:53.706Z,7.57
2023-04-05T02:45:22.141Z,7.73
2023-04-05T02:47:51.077Z,8.33
2023-04-05T02:50:20.669Z,7.60
2023-04-05T02:52:49.847Z,8.10
2023-04-05T02:55:20.384Z,7.97
2023-04-05T02:57:48.921Z,8.13
2023-04-05T03:00:27.914Z,7.80
2023-04-05T03:02:58.599Z,8.90
2023-04-05T03:05:27.524Z,7.87
2023-04-05T03:07:55.991Z,8.20
2023-04-05T03:10:34.975Z,7.30
2023-04-05T03:13:10.582Z,7.13
2023-04-05T03:15:39.529Z,7.40
2023-04-05T03:18:13.293Z,8.00
2023-04-05T03:20:45.904Z,8.13
2023-04-05T03:23:21.284Z,7.97
2023-04-05T03:25:57.367Z,8.20
2023-04-05T03:28:29.046Z,9.57
2023-04-05T03:31:03.131Z,7.00
2023-04-05T03:33:32.138Z,8.60
2023-04-05T03:36:01.414Z,7.60
2023-04-05T03:38:35.233Z,7.73
2023-04-05T03:41:16.489Z,8.37
2023-04-05T03:43:44.901Z,8.90
2023-04-05T03:46:13.507Z,8.03
2023-04-05T03:48:41.964Z,8.57
2023-04-05T03:51:11.809Z,7.90
2023-04-05T03:53:40.767Z,7.80
2023-04-05T03:56:09.439Z,8.20
2023-04-05T03:58:51.773Z,8.40
2023-04-05T04:01:25.875Z,8.40
2023-04-05T04:03:55.321Z,8.10
2023-04-05T04:06:26.823Z,7.70
2023-04-05T04:08:57.060Z,7.50
2023-04-05T04:11:25.879Z,8.67
2023-04-05T04:13:55.844Z,8.17
2023-04-05T04:16:38.214Z,8.17
2023-04-05T04:19:23.518Z,7.90
2023-04-05T04:22:10.435Z,8.40
2023-04-05T04:25:10.608Z,7.57
2023-04-05T04:27:58.602Z,7.33
2023-04-05T04:31:04.963Z,8.20
2023-04-05T04:33:40.294Z,7.80
2023-04-05T04:36:37.033Z,7.40
2023-04-05T04:39:37.741Z,7.83
2023-04-05T04:42:22.851Z,7.53
2023-04-05T04:45:10.805Z,8.53
2023-04-05T04:47:49.030Z,7.50
2023-04-05T04:50:32.360Z,8.07
2023-04-05T04:53:01.858Z,8.30
2023-04-05T04:55:30.437Z,7.97
2023-04-05T04:57:58.934Z,8.40
2023-04-05T05:00:27.686Z,7.77
2023-04-05T05:02:58.070Z,8.00
2023-04-05T05:05:27.509Z,7.63
2023-04-05T05:07:55.943Z,7.63
2023-04-05T05:10:24.344Z,7.97
2023-04-05T05:12:53.882Z,7.83
2023-04-05T05:15:22.413Z,7.57
2023-04-05T05:17:53.199Z,7.70
2023-04-05T05:20:23.387Z,8.43
2023-04-05T05:22:52.692Z,8.50
2023-04-05T05:25:21.603Z,7.63
2023-04-05T05:27:51.124Z,8.27
2023-04-05T05:30:20.785Z,7.87
2023-04-05T05:32:49.713Z,8.20
2023-04-05T05:35:18.430Z,8.43
2023-04-05T05:37:50.683Z,8.23
2023-04-05T05:40:19.014Z,8.17
2023-04-05T05:42:47.624Z,7.90
2023-04-05T05:45:15.977Z,7.53
2023-04-05T05:47:44.416Z,8.23
2023-04-05T05:50:13.121Z,7.77
2023-04-05T05:52:41.552Z,7.30
2023-04-05T05:55:11.742Z,6.13
2023-04-05T05:57:40.526Z,6.37
2023-04-05T06:00:10.674Z,6.00
2023-04-05T06:02:43.500Z,6.40
2023-04-05T06:05:11.932Z,6.10
2023-04-05T06:07:40.422Z,6.03
2023-04-05T06:10:09.674Z,5.57
2023-04-05T06:12:39.475Z,6.20
2023-04-05T06:15:08.516Z,5.70
2023-04-05T06:17:42.075Z,5.97
2023-04-05T06:20:11.631Z,5.90
2023-04-05T06:22:40.930Z,5.47
2023-04-05T06:25:10.081Z,5.47
2023-04-05T06:27:39.948Z,5.77
2023-04-05T06:30:09.062Z,5.63
2023-04-05T06:32:37.552Z,5.00
2023-04-05T06:35:06.381Z,5.17
2023-04-05T06:37:34.774Z,5.70
2023-04-05T06:40:03.124Z,6.40
2023-04-05T06:42:31.519Z,5.90
2023-04-05T06:45:07.932Z,5.20
2023-04-05T06:47:36.657Z,5.07
2023-04-05T06:50:05.168Z,5.43
2023-04-05T06:52:34.085Z,5.87
2023-04-05T06:55:02.953Z,5.13
2023-04-05T06:57:31.570Z,5.43
2023-04-05T06:59:59.933Z,5.13
2023-04-05T07:02:29.705Z,5.43
2023-04-05T07:05:04.567Z,5.00
2023-04-05T07:07:33.341Z,5.20
2023-04-05T07:10:01.832Z,5.70
2023-04-05T07:12:30.436Z,5.40
2023-04-05T07:14:58.921Z,5.17
2023-04-05T07:17:27.349Z,5.40
2023-04-05T07:19:57.091Z,5.43
2023-04-05T07:22:25.942Z,4.90
2023-04-05T07:24:55.657Z,5.33
2023-04-05T07:27:24.070Z,4.73
2023-04-05T07:29:52.450Z,4.10
2023-04-05T07:32:20.955Z,4.83
2023-04-05T07:34:49.466Z,4.87
2023-04-05T07:37:19.608Z,4.60
2023-04-05T07:39:48.047Z,4.77
2023-04-05T07:42:17.893Z,4.70
2023-04-05T07:44:47.305Z,4.80
2023-04-05T07:47:15.814Z,4.40
2023-04-05T07:49:44.387Z,4.73
2023-04-05T07:52:13.037Z,4.87
2023-04-05T07:54:45.978Z,4.50
2023-04-05T07:57:18.562Z,4.70
2023-04-05T07:59:47.977Z,4.77
2023-04-05T08:02:16.387Z,5.00
2023-04-05T08:04:44.988Z,4.53
2023-04-05T08:07:13.468Z,4.47
2023-04-05T08:09:43.270Z,4.93
2023-04-05T08:12:12.487Z,4.67
2023-04-05T08:14:40.871Z,4.30
2023-04-05T08:17:09.253Z,4.00
2023-04-05T08:19:37.855Z,4.60
2023-04-05T08:22:06.295Z,4.60
2023-04-05T08:24:34.677Z,4.23
2023-04-05T08:27:04.520Z,4.20
2023-04-05T08:29:32.878Z,4.20
2023-04-05T08:32:01.347Z,4.53
2023-04-05T08:34:29.817Z,4.60
2023-04-05T08:37:00.699Z,3.70
2023-04-05T08:39:29.246Z,4.20
2023-04-05T08:42:05.521Z,4.30
2023-04-05T08:44:38.991Z,4.83
2023-04-05T08:47:07.521Z,4.60
2023-04-05T08:49:35.931Z,4.27
2023-04-05T08:52:05.031Z,4.70
2023-04-05T08:54:35.639Z,4.87
2023-04-05T08:57:06.073Z,4.80
2023-04-05T08:59:37.901Z,4.80
2023-04-05T09:02:09.017Z,4.37
2023-04-05T09:04:40.405Z,4.43
2023-04-05T09:07:10.053Z,4.63
2023-04-05T09:09:39.533Z,4.47
2023-04-05T09:12:09.430Z,4.60
2023-04-05T09:14:39.805Z,4.63
2023-04-05T09:17:08.254Z,4.20
2023-04-05T09:19:36.660Z,4.57
2023-04-05T09:22:06.276Z,4.57
2023-04-05T09:24:41.500Z,4.90
2023-04-05T09:27:11.420Z,5.33
2023-04-05T09:29:42.105Z,4.63
2023-04-05T09:32:12.133Z,5.00
2023-04-05T09:34:40.922Z,4.13
2023-04-05T09:37:17.485Z,3.70
2023-04-05T09:39:46.263Z,3.53
2023-04-05T09:42:15.858Z,3.57
2023-04-05T09:44:51.614Z,3.77
2023-04-05T09:47:20.752Z,4.07
2023-04-05T09:49:53.480Z,4.50
2023-04-05T09:52:22.734Z,4.07
2023-04-05T09:54:51.693Z,3.77
2023-04-05T09:57:20.216Z,4.37
2023-04-05T09:59:49.094Z,4.20
2023-04-05T10:02:18.974Z,4.23
2023-04-05T10:04:48.424Z,4.13
2023-04-05T10:07:17.540Z,3.90
2023-04-05T10:09:46.897Z,4.40
2023-04-05T10:12:17.288Z,4.60
2023-04-05T10:14:46.410Z,4.47
2023-04-05T10:17:18.141Z,4.30
2023-04-05T10:19:52.810Z,3.97
2023-04-05T10:22:25.770Z,4.20
2023-04-05T10:24:56.729Z,4.43
2023-04-05T10:27:29.654Z,4.60
2023-04-05T10:30:02.933Z,4.83
2023-04-05T10:32:32.652Z,4.20
2023-04-05T10:35:07.221Z,5.00
2023-04-05T10:37:42.756Z,5.20
2023-04-05T10:40:11.810Z,4.40
2023-04-05T10:42:43.839Z,4.57
2023-04-05T10:45:15.732Z,4.30
2023-04-05T10:47:45.094Z,3.87
2023-04-05T10:50:19.520Z,4.53
2023-04-05T10:52:48.970Z,4.53
2023-04-05T10:55:18.730Z,4.50
2023-04-05T10:57:48.726Z,4.43
2023-04-05T11:00:17.433Z,4.57
2023-04-05T11:02:46.264Z,4.53
2023-04-05T11:05:29.547Z,4.33
2023-04-05T11:08:01.462Z,4.30
2023-04-05T11:10:30.348Z,3.83
2023-04-05T11:13:10.622Z,4.10
2023-04-05T11:15:39.897Z,4.17
2023-04-05T11:18:09.623Z,4.60
2023-04-05T11:20:47.018Z,4.50
2023-04-05T11:23:18.745Z,4.20
2023-04-05T11:25:52.340Z,4.30
2023-04-05T11:28:27.801Z,4.30
2023-04-05T11:30:59.279Z,4.70
2023-04-05T11:33:40.893Z,4.30
2023-04-05T11:36:10.779Z,4.10
2023-04-05T11:38:41.203Z,4.03
2023-04-05T11:41:17.473Z,4.10
2023-04-05T11:43:47.477Z,4.00
2023-04-05T11:46:16.457Z,3.97
2023-04-05T11:48:45.365Z,4.43
2023-04-05T11:51:13.806Z,3.60
2023-04-05T11:53:48.411Z,3.67
2023-04-05T11:56:17.046Z,4.33
2023-04-05T11:58:45.742Z,4.27
2023-04-05T12:01:14.172Z,4.67
2023-04-05T12:03:42.737Z,4.20
2023-04-05T12:06:11.174Z,4.00
2023-04-05T12:08:40.759Z,4.00
2023-04-05T12:11:11.657Z,3.97
2023-04-05T12:13:40.793Z,4.40
2023-04-05T12:16:10.418Z,4.00
2023-04-05T12:18:39.425Z,4.30
2023-04-05T12:21:09.159Z,4.73
2023-04-05T12:23:38.373Z,4.00
2023-04-05T12:26:08.701Z,4.07
2023-04-05T12:28:54.058Z,4.00
2023-04-05T12:31:37.445Z,4.80
2023-04-05T12:34:05.876Z,4.13
2023-04-05T12:36:34.416Z,4.03
2023-04-05T12:39:03.265Z,4.10
2023-04-05T12:41:32.068Z,4.20
2023-04-05T12:44:06.576Z,4.00
2023-04-05T12:46:41.841Z,4.03
2023-04-05T12:49:12.819Z,4.00
2023-04-05T12:51:44.091Z,4.30
2023-04-05T12:54:14.594Z,4.00
2023-04-05T12:56:43.175Z,4.43
2023-04-05T12:59:13.024Z,4.50
2023-04-05T13:01:41.664Z,4.50
2023-04-05T13:04:16.044Z,4.70
2023-04-05T13:06:47.344Z,4.83
2023-04-05T13:09:16.333Z,4.43
2023-04-05T13:11:44.733Z,4.97
2023-04-05T13:14:14.521Z,4.30
2023-04-05T13:16:43.045Z,4.43
2023-04-05T13:19:11.486Z,4.03
2023-04-05T13:21:40.016Z,4.10
2023-04-05T13:24:10.148Z,4.20
2023-04-05T13:26:40.053Z,4.80
2023-04-05T13:29:08.468Z,4.60
2023-04-05T13:31:38.228Z,4.73
2023-04-05T13:34:06.690Z,4.70
2023-04-05T13:36:35.047Z,4.77
2023-04-05T13:39:03.520Z,4.40
2023-04-05T13:41:31.845Z,4.20
2023-04-05T13:44:02.367Z,4.10
2023-04-05T13:46:31.686Z,4.47
2023-04-05T13:49:01.525Z,4.20
2023-04-05T13:51:34.118Z,4.87
2023-04-05T13:54:02.698Z,4.40
2023-04-05T13:56:31.216Z,4.03
2023-04-05T13:58:59.735Z,4.57
2023-04-05T14:01:28.325Z,4.60
2023-04-05T14:03:57.173Z,4.40
2023-04-05T14:06:27.200Z,4.30
2023-04-05T14:08:56.231Z,4.77
2023-04-05T14:11:24.807Z,4.33
2023-04-05T14:13:53.272Z,5.00
2023-04-05T14:16:21.831Z,4.43
2023-04-05T14:18:50.336Z,4.80
2023-04-05T14:21:18.756Z,5.17
2023-04-05T14:23:50.468Z,4.60
2023-04-05T14:26:18.878Z,4.90
2023-04-05T14:28:47.288Z,4.90
2023-04-05T14:31:15.776Z,5.00
2023-04-05T14:33:44.227Z,5.20
2023-04-05T14:36:12.613Z,5.30
2023-04-05T14:38:41.011Z,4.87
2023-04-05T14:41:10.913Z,4.80
2023-04-05T14:43:39.431Z,4.53
2023-04-05T14:46:08.203Z,4.77
2023-04-05T14:48:37.492Z,4.80
2023-04-05T14:51:06.146Z,5.13
2023-04-05T14:53:34.660Z,4.80
2023-04-05T14:56:03.152Z,5.00
2023-04-05T14:58:34.084Z,5.07
2023-04-05T15:01:03.099Z,4.70
2023-04-05T15:03:31.648Z,4.83
2023-04-05T15:06:00.276Z,5.03
2023-04-05T15:08:29.597Z,4.40
2023-04-05T15:10:58.118Z,4.57
2023-04-05T15:13:27.037Z,4.43
2023-04-05T15:15:57.190Z,4.80
2023-04-05T15:18:25.637Z,4.47
2023-04-05T15:20:54.299Z,4.73
2023-04-05T15:23:23.845Z,4.80
2023-04-05T15:25:52.206Z,5.30
2023-04-05T15:28:20.664Z,5.00
2023-04-05T15:30:51.131Z,4.60
2023-04-05T15:33:20.872Z,4.97
2023-04-05T15:35:49.350Z,4.70
2023-04-05T15:38:17.843Z,4.90
2023-04-05T15:40:49.617Z,5.37
2023-04-05T15:43:18.185Z,5.50
2023-04-05T15:45:46.788Z,5.20
2023-04-05T15:48:15.471Z,5.40
2023-04-05T15:50:45.311Z,4.50
2023-04-05T15:53:13.895Z,5.00
2023-04-05T15:55:42.342Z,4.97
2023-04-05T15:58:10.736Z,4.93
2023-04-05T16:00:39.308Z,4.83
2023-04-05T16:03:07.844Z,4.97
2023-04-05T16:05:36.376Z,5.00
2023-04-05T16:08:06.230Z,4.90
2023-04-05T16:10:34.724Z,4.83
2023-04-05T16:13:03.265Z,4.60
2023-04-05T16:15:32.550Z,5.33
2023-04-05T16:18:01.054Z,5.10
2023-04-05T16:20:29.488Z,5.33
2023-04-05T16:22:57.938Z,5.10
2023-04-05T16:25:27.693Z,5.33
2023-04-05T16:27:56.170Z,5.37
2023-04-05T16:30:24.589Z,4.97
2023-04-05T16:32:53.370Z,5.33
2023-04-05T16:35:21.858Z,5.50
2023-04-05T16:37:50.308Z,4.67
2023-04-05T16:40:19.072Z,5.37
2023-04-05T16:42:49.065Z,5.03
2023-04-05T16:45:17.496Z,4.30
2023-04-05T16:47:46.113Z,4.90
2023-04-05T16:50:14.504Z,5.23
2023-04-05T16:52:42.955Z,4.60
2023-04-05T16:55:11.728Z,4.87
2023-04-05T16:57:40.478Z,5.00
2023-04-05T17:00:11.678Z,4.70
2023-04-05T17:02:40.428Z,5.07
2023-04-05T17:05:09.304Z,4.57
2023-04-05T17:07:37.688Z,5.43
2023-04-05T17:10:06.293Z,5.00
2023-04-05T17:12:35.348Z,5.30
2023-04-05T17:15:03.824Z,5.33
2023-04-05T17:17:33.593Z,4.77
2023-04-05T17:20:02.043Z,4.37
2023-04-05T17:22:31.571Z,4.77
2023-04-05T17:25:01.046Z,5.00
2023-04-05T17:27:29.508Z,5.13
2023-04-05T17:29:59.124Z,4.93
2023-04-05T17:32:28.487Z,5.13
2023-04-05T17:34:58.357Z,5.63
2023-04-05T17:37:26.760Z,4.83
2023-04-05T17:39:55.509Z,4.90
2023-04-05T17:42:23.904Z,5.40
2023-04-05T17:44:53.815Z,4.80
2023-04-05T17:47:24.245Z,4.90
2023-04-05T17:49:52.698Z,4.77
2023-04-05T17:52:22.695Z,5.27
2023-04-05T17:54:54.464Z,4.80
2023-04-05T17:57:22.854Z,4.87
2023-04-05T17:59:51.239Z,4.50
2023-04-05T18:02:19.839Z,5.63
2023-04-05T18:04:48.318Z,5.00
2023-04-05T18:07:16.730Z,4.80
2023-04-05T18:09:46.540Z,4.27
2023-04-05T18:12:14.931Z,4.83
2023-04-05T18:14:43.291Z,5.23
2023-04-05T18:17:11.799Z,5.00
2023-04-05T18:19:40.177Z,4.60
2023-04-05T18:22:08.611Z,4.97
2023-04-05T18:24:37.047Z,4.83
2023-04-05T18:27:06.806Z,5.30
2023-04-05T18:29:38.051Z,5.10
2023-04-05T18:32:06.990Z,5.07
2023-04-05T18:34:35.755Z,5.30
2023-04-05T18:37:04.280Z,6.53
2023-04-05T18:39:32.691Z,6.20
2023-04-05T18:42:01.089Z,5.50
2023-04-05T18:44:30.978Z,6.47
2023-04-05T18:46:59.439Z,6.77
2023-04-05T18:49:27.923Z,6.47
2023-04-05T18:51:56.618Z,6.17
2023-04-05T18:54:25.440Z,5.47
2023-04-05T18:56:53.865Z,6.33
2023-04-05T18:59:22.456Z,6.13
2023-04-05T19:01:52.218Z,6.03
2023-04-05T19:04:20.760Z,6.27
2023-04-05T19:06:49.098Z,7.40
2023-04-05T19:09:18.219Z,8.63
2023-04-05T19:11:46.677Z,7.20
2023-04-05T19:14:15.107Z,7.07
2023-04-05T19:16:43.807Z,7.30
2023-04-05T19:19:13.541Z,6.47
2023-04-05T19:21:41.962Z,6.70
2023-04-05T19:24:13.131Z,7.27
2023-04-05T19:26:41.838Z,6.97
2023-04-05T19:29:10.612Z,7.60
2023-04-05T19:31:39.852Z,7.63
2023-04-05T19:34:08.861Z,8.40
2023-04-05T19:36:39.138Z,8.40
2023-04-05T19:39:08.110Z,7.70
2023-04-05T19:41:37.741Z,7.53
2023-04-05T19:44:08.989Z,7.50
2023-04-05T19:46:39.893Z,8.33
2023-04-05T19:49:10.136Z,7.30
2023-04-05T19:51:39.899Z,7.03
2023-04-05T19:54:12.431Z,7.33
2023-04-05T19:56:41.852Z,6.97
2023-04-05T19:59:27.052Z,6.93
2023-04-05T20:01:55.849Z,7.20
2023-04-05T20:04:24.857Z,8.03
2023-04-05T20:06:55.677Z,6.97
2023-04-05T20:09:24.928Z,7.50
2023-04-05T20:11:55.928Z,7.03
2023-04-05T20:14:26.952Z,7.20
2023-04-05T20:17:02.754Z,7.07
2023-04-05T20:19:33.063Z,7.20
2023-04-05T20:22:03.467Z,7.60
2023-04-05T20:24:32.065Z,7.33
2023-04-05T20:27:01.243Z,7.77
2023-04-05T20:29:32.337Z,7.13
2023-04-05T20:32:00.866Z,7.27
2023-04-05T20:34:30.520Z,6.53
2023-04-05T20:37:00.078Z,6.57
2023-04-05T20:39:30.064Z,6.90
2023-04-05T20:41:59.972Z,6.90
2023-04-05T20:44:28.769Z,6.23
2023-04-05T20:46:58.260Z,6.43
2023-04-05T20:49:29.943Z,5.60
2023-04-05T20:51:58.427Z,5.93
2023-04-05T20:54:27.348Z,5.63
2023-04-05T20:56:57.263Z,5.40
2023-04-05T20:59:26.318Z,5.73
2023-04-05T21:01:54.913Z,5.90
2023-04-05T21:04:23.493Z,5.80
2023-04-05T21:06:52.267Z,5.60
2023-04-05T21:09:21.306Z,5.40
2023-04-05T21:11:49.723Z,5.50
2023-04-05T21:14:19.567Z,5.47
2023-04-05T21:16:47.942Z,5.50
2023-04-05T21:19:17.656Z,6.57
2023-04-05T21:21:46.028Z,6.10
2023-04-05T21:24:14.424Z,6.00
2023-04-05T21:26:43.595Z,6.10
2023-04-05T21:29:12.008Z,6.97
2023-04-05T21:31:41.783Z,7.37
2023-04-05T21:34:10.319Z,7.60
2023-04-05T21:36:38.659Z,7.33
2023-04-05T21:39:08.512Z,7.97
2023-04-05T21:41:37.102Z,7.60
2023-04-05T21:44:05.626Z,7.80
2023-04-05T21:46:34.017Z,7.37
2023-04-05T21:49:03.883Z,7.50
2023-04-05T21:51:32.332Z,7.23
2023-04-05T21:54:00.759Z,7.53
2023-04-05T21:56:29.163Z,7.57
2023-04-05T21:58:57.604Z,7.50
2023-04-05T22:01:26.127Z,7.20
2023-04-05T22:03:54.558Z,6.83
2023-04-05T22:06:24.397Z,7.57
2023-04-05T22:08:54.618Z,7.43
2023-04-05T22:11:23.770Z,6.93
2023-04-05T22:13:52.426Z,7.27
2023-04-05T22:16:21.396Z,8.33
2023-04-05T22:18:49.818Z,7.83
2023-04-05T22:21:18.219Z,8.40
2023-04-05T22:23:47.941Z,7.87
2023-04-05T22:26:16.591Z,8.70
2023-04-05T22:28:44.926Z,8.97
2023-04-05T22:31:14.746Z,9.37
2023-04-05T22:33:43.193Z,10.30
2023-04-05T22:36:11.633Z,10.17
2023-04-05T22:38:40.057Z,9.67
2023-04-05T22:41:09.808Z,9.90
2023-04-05T22:43:38.155Z,9.97
2023-04-05T22:46:06.645Z,9.70
2023-04-05T22:48:35.093Z,9.57
2023-04-05T22:51:03.581Z,8.80
2023-04-05T22:53:31.944Z,9.10
2023-04-05T22:56:00.365Z,9.30
2023-04-05T22:58:32.783Z,9.20
2023-04-05T23:01:02.404Z,9.33
2023-04-05T23:03:30.905Z,9.93
2023-04-05T23:05:59.293Z,9.17
2023-04-05T23:08:27.709Z,9.30
2023-04-05T23:10:56.108Z,8.50
2023-04-05T23:13:24.577Z,9.17
2023-04-05T23:15:54.400Z,9.20
2023-04-05T23:18:23.113Z,9.63
2023-04-05T23:20:51.689Z,8.27
2023-04-05T23:23:20.090Z,9.43
2023-04-05T23:25:48.444Z,9.40
2023-04-05T23:28:16.804Z,9.27
2023-04-05T23:30:45.327Z,9.57
2023-04-05T23:33:15.184Z,9.23
2023-04-05T23:35:43.610Z,9.83
2023-04-05T23:38:12.349Z,10.33
2023-04-05T23:40:40.918Z,10.07
2023-04-05T23:43:09.335Z,10.27
2023-04-05T23:45:37.723Z,9.33
2023-04-05T23:48:06.504Z,10.60
2023-04-05T23:50:36.356Z,10.37
2023-04-05T23:53:04.737Z,10.23
2023-04-05T23:55:35.128Z,10.20
2023-04-05T23:58:03.516Z,9.97
